createdAt,value
2022-11-21T00:40:53.250Z,99684.59
2022-11-21T02:11:40.046Z,99488.20
2022-11-21T02:14:14.513Z,99475.63
2022-11-21T02:16:48.348Z,99456.08
2022-11-21T02:19:45.038Z,99439.66
2022-11-21T02:53:02.648Z,99408.29
2022-11-21T03:47:18.752Z,99252.79
2022-11-21T03:51:21.065Z,99264.19
2022-11-21T08:33:04.945Z,99353.75
2022-11-21T08:35:39.515Z,99356.50
2022-11-21T08:38:12.724Z,99372.52
2022-11-21T08:40:45.786Z,99378.24
2022-11-21T08:43:40.037Z,99382.64
2022-11-21T08:46:13.424Z,99385.38
2022-11-21T08:48:47.025Z,99386.00
2022-11-21T08:51:20.520Z,99389.88
2022-11-21T08:53:53.860Z,99407.36
2022-11-21T08:56:53.074Z,99398.50
2022-11-21T09:08:22.772Z,99395.51
2022-11-21T09:13:03.360Z,99411.58
2022-11-21T09:38:49.787Z,99422.81
2022-11-21T09:44:48.389Z,99414.89
2022-11-21T09:47:26.576Z,99423.17
2022-11-21T10:00:58.426Z,99414.53
2022-11-21T10:04:14.925Z,99424.09
2022-11-21T10:11:35.159Z,99416.83
2022-11-21T10:18:33.389Z,99419.69
2022-11-21T10:23:32.450Z,99426.19
2022-11-21T10:36:54.508Z,99439.66
2022-11-21T10:39:36.443Z,99432.31
2022-11-21T10:43:24.175Z,99449.64
2022-11-21T10:45:58.009Z,99446.75
2022-11-21T10:48:31.634Z,99445.52
2022-11-21T10:51:24.842Z,99445.70
2022-11-21T10:55:57.647Z,99448.17
2022-11-21T10:58:42.904Z,99442.05
2022-11-21T11:01:28.904Z,99447.73
2022-11-21T11:04:31.898Z,99447.13
2022-11-21T11:07:24.484Z,99442.84
2022-11-21T11:10:27.708Z,99433.07
2022-11-21T11:16:21.945Z,99435.72
2022-11-21T11:19:00.722Z,99427.78
2022-11-21T11:21:44.692Z,99425.54
2022-11-21T11:24:28.229Z,99422.28
2022-11-21T11:27:03.716Z,99416.19
2022-11-21T11:29:50.536Z,99420.47
2022-11-21T12:58:38.298Z,99450.82
2022-11-21T13:01:25.549Z,99458.59
2022-11-21T13:04:05.797Z,99459.58
2022-11-21T13:06:43.924Z,99462.44
2022-11-21T13:09:21.944Z,99462.44
2022-11-21T13:12:01.908Z,99463.24
2022-11-21T13:14:48.415Z,99458.78
2022-11-21T13:17:31.071Z,99458.59
2022-11-21T13:20:16.139Z,99466.31
2022-11-21T13:23:06.907Z,99466.92
2022-11-21T13:25:48.528Z,99467.35
2022-11-21T13:28:36.081Z,99471.41
2022-11-21T13:31:36.274Z,99475.69
2022-11-21T13:34:37.024Z,99481.59
2022-11-21T13:37:10.616Z,99482.61
2022-11-21T13:39:43.980Z,99490.36
2022-11-21T13:42:35.317Z,99491.98
2022-11-21T13:45:43.862Z,99479.77
2022-11-21T13:49:05.029Z,99483.44
2022-11-21T13:51:58.112Z,99491.56
2022-11-21T13:54:58.026Z,99491.56
2022-11-21T13:57:47.621Z,99491.56
2022-11-21T14:00:43.777Z,99500.52
2022-11-21T14:03:45.004Z,99504.59
2022-11-21T14:06:37.844Z,99507.45
2022-11-21T14:09:27.505Z,99518.22
2022-11-21T14:12:04.988Z,99528.63
2022-11-21T14:14:41.991Z,99527.39
2022-11-21T14:17:44.978Z,99524.75
2022-11-21T14:20:24.860Z,99526.75
2022-11-21T14:23:19.783Z,99528.59
2022-11-21T14:25:58.289Z,99519.03
2022-11-21T14:28:34.245Z,99513.92
2022-11-21T14:31:09.733Z,99520.23
2022-11-21T14:33:51.432Z,99519.61
2022-11-21T14:36:29.658Z,99516.78
2022-11-21T14:42:07.364Z,99518.38
2022-11-21T14:44:42.444Z,99524.50
2022-11-21T14:47:25.599Z,99535.09
2022-11-21T14:50:07.506Z,99528.97
2022-11-21T14:52:41.824Z,99530.59
2022-11-21T14:55:30.953Z,99536.91
2022-11-21T14:58:07.663Z,99539.55
2022-11-21T15:00:58.974Z,99537.73
2022-11-21T15:03:35.378Z,99545.05
2022-11-21T15:06:13.919Z,99537.30
2022-11-21T15:11:48.772Z,99542.98
2022-11-21T15:14:47.246Z,99545.85
2022-11-21T15:17:24.572Z,99553.97
2022-11-21T15:20:23.404Z,99542.59
2022-11-21T15:23:00.148Z,99547.27
2022-11-21T15:25:47.334Z,99538.50
2022-11-21T15:28:22.521Z,99547.67
2022-11-21T15:31:23.653Z,99545.64
2022-11-21T15:37:08.674Z,99534.25
2022-11-21T15:39:46.534Z,99536.91
2022-11-21T15:42:39.207Z,99537.91
2022-11-21T15:45:29.227Z,99538.93
2022-11-21T15:48:02.401Z,99536.06
2022-11-21T15:50:36.937Z,99528.53
2022-11-21T15:53:20.822Z,99530.34
2022-11-21T15:55:54.241Z,99530.73
2022-11-21T15:58:27.353Z,99542.15
2022-11-21T16:01:01.884Z,99546.82
2022-11-21T16:03:35.577Z,99552.52
2022-11-21T16:06:09.792Z,99556.79
2022-11-21T16:08:43.473Z,99554.36
2022-11-21T16:11:22.206Z,99560.66
2022-11-21T16:13:57.183Z,99554.94
2022-11-21T16:16:34.030Z,99563.08
2022-11-21T16:19:08.086Z,99562.65
2022-11-21T16:21:41.420Z,99561.84
2022-11-21T16:24:14.609Z,99562.86
2022-11-21T16:26:49.688Z,99564.89
2022-11-21T16:29:23.527Z,99557.75
2022-11-21T16:31:57.456Z,99551.23
2022-11-21T16:34:32.940Z,99563.65
2022-11-21T16:37:07.733Z,99566.30
2022-11-21T16:39:41.747Z,99564.45
2022-11-21T16:42:15.165Z,99569.73
2022-11-21T16:44:48.739Z,99572.38
2022-11-21T16:47:22.016Z,99583.79
2022-11-21T16:49:55.211Z,99596.00
2022-11-21T16:52:28.311Z,99593.35
2022-11-21T16:55:02.371Z,99591.72
2022-11-21T16:57:37.504Z,99596.18
2022-11-21T17:00:13.796Z,99592.52
2022-11-21T17:02:47.232Z,99581.33
2022-11-21T17:05:21.212Z,99582.16
2022-11-21T17:07:54.466Z,99584.80
2022-11-21T17:10:33.670Z,99591.10
2022-11-21T17:13:07.333Z,99594.75
2022-11-21T17:15:40.728Z,99590.27
2022-11-21T17:18:14.118Z,99594.75
2022-11-21T17:20:47.347Z,99598.20
2022-11-21T17:23:20.773Z,99609.79
2022-11-21T17:25:54.307Z,99616.92
2022-11-21T17:28:27.705Z,99610.18
2022-11-21T17:31:06.601Z,99616.09
2022-11-21T17:33:40.431Z,99603.88
2022-11-21T17:36:16.232Z,99602.06
2022-11-21T17:38:50.311Z,99614.45
2022-11-21T17:41:25.464Z,99622.21
2022-11-21T17:44:01.136Z,99625.66
2022-11-21T17:46:34.069Z,99636.44
2022-11-21T17:49:08.172Z,99642.73
2022-11-21T17:51:42.795Z,99648.03
2022-11-21T17:54:16.466Z,99655.12
2022-11-21T17:56:56.465Z,99656.14
2022-11-21T17:59:31.754Z,99658.16
2022-11-21T18:02:05.306Z,99657.36
2022-11-21T18:04:40.582Z,99656.53
2022-11-21T18:07:14.073Z,99655.91
2022-11-21T18:09:48.439Z,99663.03
2022-11-21T18:12:21.832Z,99661.19
2022-11-21T18:14:55.093Z,99664.84
2022-11-21T18:17:28.888Z,99670.97
2022-11-21T18:20:02.319Z,99677.05
2022-11-21T18:22:36.245Z,99667.31
2022-11-21T18:25:11.085Z,99673.22
2022-11-21T18:27:47.615Z,99674.02
2022-11-21T18:30:25.284Z,99674.41
2022-11-21T18:32:59.038Z,99684.98
2022-11-21T18:35:32.213Z,99687.63
2022-11-21T18:38:06.024Z,99684.98
2022-11-21T18:40:39.414Z,99686.83
2022-11-21T18:43:13.010Z,99690.89
2022-11-21T18:45:47.021Z,99689.27
2022-11-21T18:48:20.309Z,99691.73
2022-11-21T18:50:53.720Z,99691.73
2022-11-21T18:53:26.840Z,99708.22
2022-11-21T18:56:04.670Z,99706.20
2022-11-21T18:58:38.942Z,99706.20
2022-11-21T19:01:16.012Z,99708.84
2022-11-21T19:03:50.343Z,99713.12
2022-11-21T19:06:25.488Z,99711.27
2022-11-21T19:09:00.857Z,99712.91
2022-11-21T19:11:34.097Z,99719.03
2022-11-21T19:14:07.679Z,99717.02
2022-11-21T19:16:40.643Z,99718.64
2022-11-21T19:22:10.029Z,99720.91
2022-11-21T19:24:44.074Z,99728.45
2022-11-21T19:27:17.856Z,99735.17
2022-11-21T19:29:55.129Z,99746.58
2022-11-21T19:32:29.304Z,99748.21
2022-11-21T19:35:02.775Z,99759.41
2022-11-21T19:37:36.927Z,99760.22
2022-11-21T19:40:13.881Z,99767.98
2022-11-21T19:42:46.958Z,99773.06
2022-11-21T19:45:20.358Z,99769.41
2022-11-21T19:47:58.327Z,99785.09
2022-11-21T19:50:31.654Z,99778.34
2022-11-21T19:53:05.048Z,99787.30
2022-11-21T19:55:38.650Z,99789.14
2022-11-21T19:58:11.874Z,99788.93
2022-11-21T20:00:47.087Z,99797.70
2022-11-21T20:03:20.726Z,99803.61
2022-11-21T20:05:54.144Z,99797.31
2022-11-21T20:08:27.610Z,99792.65
2022-11-21T20:11:11.685Z,99788.16
2022-11-21T20:13:46.771Z,99777.79
2022-11-21T20:16:22.741Z,99779.59
2022-11-21T20:18:58.984Z,99785.90
2022-11-21T20:21:34.509Z,99783.64
2022-11-21T20:24:09.829Z,99788.30
2022-11-21T20:26:44.169Z,99794.81
2022-11-21T20:29:21.328Z,99801.28
2022-11-21T20:31:55.145Z,99803.93
2022-11-21T20:34:29.007Z,99812.70
2022-11-21T20:37:03.681Z,99815.52
2022-11-21T20:39:37.896Z,99820.18
2022-11-21T20:42:11.289Z,99818.75
2022-11-21T20:45:41.656Z,99817.29
2022-11-21T20:47:41.637Z,99813.84
2022-11-21T20:50:39.146Z,99813.01
2022-11-21T20:56:07.148Z,99813.59
2022-11-21T20:58:42.389Z,99814.61
2022-11-21T21:01:19.254Z,99825.18
2022-11-21T21:03:52.791Z,99830.84
2022-11-21T21:06:26.797Z,99836.94
2022-11-21T21:09:01.217Z,99825.94
2022-11-21T21:11:52.682Z,99828.58
2022-11-21T21:14:30.563Z,99823.67
2022-11-21T21:17:04.136Z,99833.62
2022-11-21T21:19:38.204Z,99839.28
2022-11-21T21:22:12.158Z,99839.28
2022-11-21T21:24:45.545Z,99834.17
2022-11-21T21:27:19.145Z,99827.45
2022-11-21T21:29:54.205Z,99842.68
2022-11-21T21:32:31.801Z,99844.69
2022-11-21T21:35:05.576Z,99845.87
2022-11-21T21:37:38.919Z,99846.08
2022-11-21T21:40:17.189Z,99842.80
2022-11-21T21:42:54.060Z,99848.25
2022-11-21T21:45:27.454Z,99851.91
2022-11-21T21:48:01.117Z,99852.11
2022-11-21T21:50:38.010Z,99847.20
2022-11-21T21:53:11.213Z,99854.92
2022-11-21T21:55:44.352Z,99860.58
2022-11-21T21:58:17.698Z,99868.70
2022-11-21T22:00:51.045Z,99867.88
2022-11-21T22:03:24.325Z,99863.59
2022-11-21T22:06:01.159Z,99854.86
2022-11-21T22:08:36.192Z,99856.67
2022-11-21T22:11:11.402Z,99847.31
2022-11-21T22:13:46.858Z,99841.02
2022-11-21T22:16:20.355Z,99832.46
2022-11-21T22:18:53.748Z,99834.27
2022-11-21T22:21:28.712Z,99839.92
2022-11-21T22:24:24.120Z,99842.94
2022-11-21T22:26:57.198Z,99846.16
2022-11-21T22:29:30.857Z,99857.89
2022-11-21T22:32:03.773Z,99849.97
2022-11-21T22:34:37.582Z,99848.53
2022-11-21T22:37:10.773Z,99845.06
2022-11-21T22:39:44.229Z,99856.63
2022-11-21T22:42:17.635Z,99850.08
2022-11-21T22:44:51.052Z,99851.08
2022-11-21T22:47:24.251Z,99847.00
2022-11-21T22:49:57.952Z,99857.73
2022-11-21T22:52:31.394Z,99862.58
2022-11-21T22:55:04.969Z,99869.67
2022-11-21T22:57:38.340Z,99878.59
2022-11-21T23:00:16.647Z,99890.36
2022-11-21T23:02:50.042Z,99896.81
2022-11-21T23:05:23.231Z,99899.65
2022-11-21T23:07:57.242Z,99900.28
2022-11-21T23:10:30.842Z,99905.38
2022-11-21T23:13:05.056Z,99904.56
2022-11-21T23:15:38.264Z,99903.56
2022-11-21T23:18:11.641Z,99906.84
2022-11-21T23:20:45.914Z,99911.13
2022-11-21T23:23:19.076Z,99903.00
2022-11-21T23:25:52.294Z,99912.56
2022-11-21T23:28:26.006Z,99907.48
2022-11-21T23:30:59.070Z,99900.73
2022-11-21T23:33:32.417Z,99904.73
2022-11-21T23:36:05.815Z,99906.47
2022-11-21T23:38:39.881Z,99911.11
2022-11-21T23:41:13.526Z,99915.11
2022-11-21T23:43:46.866Z,99909.19
2022-11-21T23:46:20.478Z,99914.83
2022-11-21T23:48:53.819Z,99915.03
2022-11-21T23:51:27.076Z,99915.67
2022-11-21T23:54:01.007Z,99916.47
2022-11-21T23:56:34.813Z,99924.39
2022-11-21T23:59:08.048Z,99943.70
